Takamatsu Airport, Japan

1:48 PM JST on March 02, 2015 (GMT +0900)
Takamatsu | Change Station
CLOSE
Current Station
Airport
Location: Takamatsu Airport,
Elevation: 617 ft
Nearby Weather Stations

Elev 617 ft 34.21 °N, 134.02 °E | Updated 48 minutes ago

Scattered Clouds
Scattered Clouds
50 °F
Feels Like 50 °F
N
9
Wind Variable Wind from West

Today
High -- | Low -- °F
--% Chance of Precip.
Yesterday
High -- | Low -- °F
Precip. -- in
6:32 AM 6:00 PM
Waxing Gibbous, 89% visible
Pressure 30.04 in
Visibility 6.2 miles
Clouds Few 3500 ft
Scattered Clouds 4500 ft
Dew Point 30 °F
Humidity 47%
Rainfall 0.00 in
Snow Depth Not available.
UV 6 out of 12
Pollen Not available.
Air Quality Not available.
Flu Activity Not available.
METAR RJOT 020400Z 27008KT 210V330 9999 FEW035 SCT045 10/M01 Q1017

More Conditions Fewer Conditions

Pressure 30.04 in
Visibility 6.2 miles
Clouds Few 3500 ft
Scattered Clouds 4500 ft
Dew Point 30 °F
Humidity 47%
Rainfall 0.00 in
Snow Depth Not available.
UV 6 out of 12
Pollen Not available.
Air Quality Not available.
Flu Activity Not available.
METAR RJOT 020400Z 27008KT 210V330 9999 FEW035 SCT045 10/M01 Q1017

More Conditions Fewer Conditions

10-Day Weather Forecast

Almanac

Astronomy

Mar. 02, 2015 Rise Set
Actual Time
Civil Twilight
Nautical Twilight
Astronomical Twilight
Moon
Length of Visible Light
Length of Day
Tomorrow will be .
, % of the Moon is Illuminated

Today's Extremes

Country Highs Country Lows

Community

WunderPhotos

Upload Photos

1,801,725 photos uploaded!

WunderBlogs® & News

Nearby

Air Quality

  Air Quality AQ Index Pollutant
Not available.

Snow Depth

Station Depth Elevation

Earthquake Activity

City Distance Mag. Time & Date
Minimum magnitude displayed is 2.5.

Coastal Water Temperatures

Place Temperature

Nearby Weather Stations